createdAt,value
2022-11-10T00:00:38.675Z,12.98
2022-11-10T00:05:58.673Z,15.55
2022-11-10T00:11:18.727Z,20.75
2022-11-10T00:16:57.648Z,16.60
2022-11-10T00:22:17.961Z,14.70
2022-11-10T00:27:38.711Z,14.13
2022-11-10T00:32:58.923Z,11.63
2022-11-10T00:38:18.967Z,11.55
2022-11-10T00:43:39.418Z,17.92
2022-11-10T00:48:59.305Z,16.17
2022-11-10T00:54:20.130Z,15.65
2022-11-10T00:59:40.219Z,25.00
2022-11-10T01:05:00.531Z,17.20
2022-11-10T01:10:20.408Z,12.02
2022-11-10T01:15:42.685Z,16.10
2022-11-10T01:21:03.405Z,15.48
2022-11-10T01:26:24.186Z,25.42
2022-11-10T01:31:44.267Z,21.83
2022-11-10T01:37:04.516Z,19.75
2022-11-10T01:42:38.245Z,18.13
2022-11-10T01:48:02.996Z,17.27
2022-11-10T01:53:26.197Z,13.13
2022-11-10T01:58:56.247Z,17.75
2022-11-10T02:04:19.130Z,18.20
2022-11-10T02:09:39.260Z,20.20
2022-11-10T02:14:59.328Z,18.65
2022-11-10T02:20:21.363Z,12.43
2022-11-10T02:25:41.770Z,15.52
2022-11-10T02:31:02.594Z,15.50
2022-11-10T02:36:22.502Z,21.23
2022-11-10T02:41:42.511Z,14.68
2022-11-10T02:47:03.179Z,13.07
2022-11-10T02:52:23.423Z,11.30
2022-11-10T02:57:43.184Z,13.80
2022-11-10T03:03:03.497Z,18.25
2022-11-10T03:08:23.624Z,13.85
2022-11-10T03:14:00.520Z,14.82
2022-11-10T03:19:21.500Z,18.48
2022-11-10T03:24:41.669Z,13.85
2022-11-10T03:30:01.432Z,17.83
2022-11-10T03:35:21.496Z,15.55
2022-11-10T03:41:04.231Z,10.32
2022-11-10T03:46:21.434Z,16.80
2022-11-10T03:51:41.741Z,21.75
2022-11-10T03:57:01.758Z,12.10
2022-11-10T04:02:21.913Z,13.88
2022-11-10T04:08:00.615Z,17.58
2022-11-10T04:13:39.442Z,17.45
2022-11-10T04:19:00.889Z,16.30
2022-11-10T04:24:21.142Z,17.33
2022-11-10T04:29:41.443Z,16.23
2022-11-10T04:35:01.642Z,18.90
2022-11-10T04:40:21.739Z,20.17
2022-11-10T04:45:43.247Z,17.25
2022-11-10T04:51:07.327Z,16.67
2022-11-10T04:56:28.657Z,22.05
2022-11-10T05:01:48.718Z,21.95
2022-11-10T05:07:08.885Z,11.32
2022-11-10T05:12:29.133Z,15.43
2022-11-10T05:17:53.875Z,16.48
2022-11-10T05:23:32.290Z,15.57
2022-11-10T05:28:52.476Z,13.95
2022-11-10T05:34:12.575Z,13.15
2022-11-10T05:39:32.767Z,20.30
2022-11-10T05:44:52.998Z,17.05
2022-11-10T05:50:13.245Z,11.80
2022-11-10T05:55:33.391Z,16.75
2022-11-10T06:00:53.709Z,12.25
2022-11-10T06:06:13.656Z,14.48
2022-11-10T06:11:33.867Z,16.63
2022-11-10T06:16:54.047Z,18.95
2022-11-10T06:22:14.391Z,19.40
2022-11-10T06:27:34.603Z,18.00
2022-11-10T06:32:54.815Z,16.83
2022-11-10T06:38:14.735Z,18.63
2022-11-10T06:43:35.188Z,16.00
2022-11-10T06:48:55.015Z,16.55
2022-11-10T06:54:15.395Z,17.40
2022-11-10T06:59:35.287Z,19.58
2022-11-10T07:04:55.542Z,23.08
2022-11-10T07:10:15.492Z,20.40
2022-11-10T07:15:35.875Z,13.77
2022-11-10T07:20:55.720Z,11.50
2022-11-10T07:26:15.877Z,19.55
2022-11-10T07:31:35.806Z,17.60
2022-11-10T07:36:56.015Z,16.42
2022-11-10T07:42:16.423Z,15.88
2022-11-10T07:47:36.839Z,14.60
2022-11-10T07:53:08.205Z,19.58
2022-11-10T07:58:29.571Z,16.67
2022-11-10T08:09:09.791Z,20.75
2022-11-10T08:14:30.019Z,17.45
2022-11-10T08:19:50.145Z,27.38
2022-11-10T08:25:10.380Z,12.27
2022-11-10T08:30:31.273Z,22.25
2022-11-10T08:35:51.804Z,13.40
2022-11-10T08:41:12.074Z,18.35
2022-11-10T08:46:32.317Z,20.88
2022-11-10T08:51:52.426Z,20.50
2022-11-10T08:57:12.530Z,16.48
2022-11-10T09:02:32.635Z,17.85
2022-11-10T09:07:52.610Z,20.10
2022-11-10T09:13:14.118Z,13.98
2022-11-10T09:18:34.423Z,10.77
2022-11-10T09:23:54.618Z,16.10
2022-11-10T09:29:14.895Z,16.92
2022-11-10T09:34:35.022Z,15.88
2022-11-10T09:39:55.914Z,18.35
2022-11-10T09:45:20.361Z,18.42
2022-11-10T09:51:03.844Z,18.67
2022-11-10T09:56:35.261Z,18.85
2022-11-10T10:02:29.578Z,14.60
2022-11-10T10:08:04.625Z,16.30
2022-11-10T10:13:51.795Z,18.17
2022-11-10T10:19:26.379Z,17.33
2022-11-10T10:24:48.915Z,21.13
2022-11-10T10:30:14.201Z,14.15
2022-11-10T10:35:39.025Z,17.35
2022-11-10T10:41:26.528Z,18.63
2022-11-10T10:46:48.695Z,8.80
2022-11-10T10:52:17.304Z,12.82
2022-11-10T10:57:37.038Z,17.58
2022-11-10T11:03:04.656Z,15.30
2022-11-10T11:08:26.883Z,17.55
2022-11-10T11:13:46.971Z,10.63
2022-11-10T11:19:08.965Z,16.45
2022-11-10T11:25:02.968Z,14.52
2022-11-10T11:30:25.583Z,12.15
2022-11-10T11:36:01.795Z,16.10
2022-11-10T11:41:56.987Z,12.57
2022-11-10T11:47:46.355Z,13.10
2022-11-10T11:53:44.076Z,11.38
2022-11-10T11:59:03.874Z,9.50
2022-11-10T12:04:48.056Z,11.52
2022-11-10T12:10:27.283Z,13.65
2022-11-10T12:16:02.444Z,10.13
2022-11-10T12:21:40.737Z,13.43
2022-11-10T12:27:26.387Z,10.65
2022-11-10T12:32:58.985Z,8.45
2022-11-10T12:38:59.428Z,11.50
2022-11-10T12:44:37.135Z,10.45
2022-11-10T12:50:09.504Z,10.40
2022-11-10T12:55:42.706Z,7.95
2022-11-10T13:01:05.435Z,8.32
2022-11-10T13:06:35.669Z,7.90
2022-11-10T13:12:10.631Z,13.07
2022-11-10T13:17:39.553Z,10.43
2022-11-10T13:22:59.499Z,7.70
2022-11-10T13:28:47.393Z,7.35
2022-11-10T13:34:19.176Z,8.55
2022-11-10T13:39:39.527Z,10.00
2022-11-10T13:45:34.203Z,8.38
2022-11-10T13:51:30.594Z,7.25
2022-11-10T13:57:05.283Z,8.02
2022-11-10T14:03:01.239Z,8.65
2022-11-10T14:08:27.386Z,13.95
2022-11-10T14:13:56.051Z,6.72
2022-11-10T14:19:25.501Z,7.63
2022-11-10T14:25:02.384Z,6.90
2022-11-10T14:30:25.618Z,8.13
2022-11-10T14:35:51.422Z,6.80
2022-11-10T14:41:19.995Z,8.02
2022-11-10T14:46:39.801Z,6.80
2022-11-10T14:52:01.389Z,8.68
2022-11-10T14:57:21.756Z,8.52
2022-11-10T15:02:41.729Z,9.43
2022-11-10T15:08:03.969Z,6.22
2022-11-10T15:13:27.040Z,7.50
2022-11-10T15:18:49.058Z,5.97
2022-11-10T15:24:11.044Z,7.18
2022-11-10T15:34:52.919Z,6.38
2022-11-10T15:40:31.394Z,5.28
2022-11-10T15:46:00.165Z,5.18
2022-11-10T15:51:25.988Z,7.05
2022-11-10T15:56:46.396Z,5.22
2022-11-10T16:02:15.891Z,8.38
2022-11-10T16:07:36.020Z,8.98
2022-11-10T16:12:56.346Z,6.82
2022-11-10T16:18:25.043Z,8.13
2022-11-10T16:23:46.389Z,7.20
2022-11-10T16:29:13.604Z,7.60
2022-11-10T16:34:33.760Z,8.43
2022-11-10T16:39:54.170Z,8.07
2022-11-10T16:45:16.459Z,6.43
2022-11-10T16:50:37.722Z,5.38
2022-11-10T16:55:58.351Z,9.30
2022-11-10T17:01:21.494Z,9.20
2022-11-10T17:06:43.164Z,9.88
2022-11-10T17:12:03.675Z,9.73
2022-11-10T17:17:24.231Z,9.82
2022-11-10T17:22:44.155Z,9.98
2022-11-10T17:28:04.637Z,6.97
2022-11-10T17:33:25.175Z,8.05
2022-11-10T17:38:46.191Z,8.30
2022-11-10T17:44:12.964Z,9.23
2022-11-10T17:49:32.921Z,11.20
2022-11-10T17:54:53.254Z,8.98
2022-11-10T18:00:15.202Z,19.48
2022-11-10T18:05:35.830Z,9.82
2022-11-10T18:10:55.665Z,13.38
2022-11-10T18:16:16.154Z,11.05
2022-11-10T18:21:36.326Z,10.90
2022-11-10T18:26:56.703Z,11.82
2022-11-10T18:32:17.167Z,9.32
2022-11-10T18:37:39.257Z,15.60
2022-11-10T18:43:05.906Z,9.38
2022-11-10T18:48:31.111Z,10.48
2022-11-10T18:53:55.173Z,12.82
2022-11-10T18:59:15.518Z,10.45
2022-11-10T19:04:35.346Z,11.48
2022-11-10T19:09:55.605Z,11.10
2022-11-10T19:15:15.997Z,10.18
2022-11-10T19:20:38.520Z,12.50
2022-11-10T19:26:02.667Z,11.63
2022-11-10T19:31:24.536Z,12.65
2022-11-10T19:36:45.834Z,10.60
2022-11-10T19:42:05.834Z,11.00
2022-11-10T19:47:26.320Z,9.10
2022-11-10T19:52:46.147Z,11.13
2022-11-10T19:58:06.262Z,13.13
2022-11-10T20:03:28.864Z,12.25
2022-11-10T20:08:50.075Z,11.63
2022-11-10T20:14:10.428Z,15.20
2022-11-10T20:19:30.864Z,13.23
2022-11-10T20:24:51.457Z,16.23
2022-11-10T20:30:12.014Z,12.03
2022-11-10T20:35:32.671Z,11.38
2022-11-10T20:41:08.382Z,14.45
2022-11-10T20:52:08.350Z,13.32
2022-11-10T20:57:28.536Z,15.75
2022-11-10T21:02:48.489Z,20.58
2022-11-10T21:08:08.710Z,15.52
2022-11-10T21:13:28.918Z,16.95
2022-11-10T21:18:49.185Z,13.35
2022-11-10T21:24:09.651Z,15.90
2022-11-10T21:29:29.748Z,13.63
2022-11-10T21:34:49.837Z,14.23
2022-11-10T21:40:10.320Z,18.33
2022-11-10T21:45:30.535Z,17.27
2022-11-10T21:50:50.808Z,14.18
2022-11-10T21:56:12.037Z,13.73
2022-11-10T22:01:32.297Z,16.25
2022-11-10T22:07:10.625Z,22.80
2022-11-10T22:12:49.240Z,18.05
2022-11-10T22:18:33.467Z,19.50
2022-11-10T22:24:12.136Z,16.02
2022-11-10T22:29:33.256Z,17.80
2022-11-10T22:34:53.411Z,16.02
2022-11-10T22:40:32.517Z,14.90
2022-11-10T22:45:52.835Z,17.17
2022-11-10T22:51:13.013Z,18.50
2022-11-10T22:56:33.273Z,19.23
2022-11-10T23:01:53.495Z,24.90
2022-11-10T23:07:13.448Z,16.85
2022-11-10T23:12:33.794Z,16.80
2022-11-10T23:17:54.801Z,20.58
2022-11-10T23:23:14.984Z,23.98
2022-11-10T23:28:35.780Z,19.33
2022-11-10T23:33:57.457Z,20.37
2022-11-10T23:44:38.977Z,20.42
2022-11-10T23:49:59.076Z,22.55
2022-11-10T23:55:19.341Z,22.48
